createdAt,value
2022-10-28T00:01:29.412Z,7.05
2022-10-28T00:03:59.419Z,7.45
2022-10-28T00:06:32.085Z,6.70
2022-10-28T00:09:00.999Z,7.03
2022-10-28T00:11:31.667Z,6.72
2022-10-28T00:14:04.214Z,6.72
2022-10-28T00:16:34.753Z,6.15
2022-10-28T00:19:04.753Z,5.80
2022-10-28T00:21:35.302Z,6.13
2022-10-28T00:24:03.730Z,5.60
2022-10-28T00:26:34.091Z,6.13
2022-10-28T00:29:05.682Z,5.90
2022-10-28T00:31:35.603Z,5.03
2022-10-28T00:34:05.585Z,4.93
2022-10-28T00:36:36.211Z,4.22
2022-10-28T00:39:10.289Z,4.63
2022-10-28T00:41:40.761Z,4.13
2022-10-28T00:44:53.310Z,4.18
2022-10-28T00:47:31.180Z,3.88
2022-10-28T00:50:07.313Z,3.25
2022-10-28T00:52:38.953Z,3.30
2022-10-28T00:55:09.272Z,4.03
2022-10-28T00:57:40.031Z,3.33
2022-10-28T01:00:11.113Z,3.22
2022-10-28T01:02:45.262Z,2.60
2022-10-28T01:05:16.850Z,3.00
2022-10-28T01:07:45.894Z,2.90
2022-10-28T01:10:15.789Z,2.65
2022-10-28T01:12:56.615Z,2.83
2022-10-28T01:15:34.652Z,2.92
2022-10-28T01:18:10.221Z,2.95
2022-10-28T01:21:23.231Z,2.72
2022-10-28T01:24:04.989Z,2.20
2022-10-28T01:27:11.922Z,2.53
2022-10-28T01:30:01.224Z,2.42
2022-10-28T01:32:37.413Z,3.00
2022-10-28T01:35:14.390Z,2.40
2022-10-28T01:37:51.907Z,2.10
2022-10-28T01:40:25.282Z,3.05
2022-10-28T01:42:58.535Z,2.28
2022-10-28T01:45:31.862Z,2.53
2022-10-28T01:48:03.575Z,3.00
2022-10-28T01:50:38.602Z,2.95
2022-10-28T01:53:11.944Z,2.90
2022-10-28T01:55:45.549Z,2.85
2022-10-28T01:58:18.668Z,2.28
2022-10-28T02:00:48.454Z,2.78
2022-10-28T02:03:18.684Z,3.00
2022-10-28T02:05:48.790Z,2.65
2022-10-28T02:08:44.879Z,2.20
2022-10-28T02:11:38.629Z,2.55
2022-10-28T02:14:19.047Z,2.30
2022-10-28T02:16:51.084Z,2.60
2022-10-28T02:19:30.467Z,2.55
2022-10-28T02:25:34.747Z,2.63
2022-10-28T02:28:08.404Z,2.60
2022-10-28T02:30:44.812Z,1.85
2022-10-28T02:33:17.807Z,2.13
2022-10-28T02:35:51.760Z,1.67
2022-10-28T02:38:23.522Z,2.50
2022-10-28T02:41:00.206Z,2.20
2022-10-28T02:43:31.235Z,2.60
2022-10-28T02:46:02.820Z,2.25
2022-10-28T02:48:36.579Z,2.20
2022-10-28T02:51:11.168Z,2.78
2022-10-28T02:53:49.120Z,2.00
2022-10-28T02:56:19.144Z,1.73
2022-10-28T02:58:48.535Z,2.33
2022-10-28T03:01:16.865Z,1.70
2022-10-28T03:03:45.572Z,2.05
2022-10-28T03:06:15.685Z,1.80
2022-10-28T03:08:44.053Z,2.10
2022-10-28T03:11:12.411Z,2.15
2022-10-28T03:13:40.645Z,2.20
2022-10-28T03:16:09.072Z,2.72
2022-10-28T03:18:37.373Z,2.55
2022-10-28T03:21:05.783Z,2.17
2022-10-28T03:23:35.479Z,2.17
2022-10-28T03:26:03.829Z,2.00
2022-10-28T03:28:32.080Z,2.38
2022-10-28T03:31:00.327Z,2.75
2022-10-28T03:33:28.672Z,2.47
2022-10-28T03:35:57.075Z,2.20
2022-10-28T03:38:25.439Z,2.13
2022-10-28T03:40:55.116Z,2.20
2022-10-28T03:43:23.398Z,2.17
2022-10-28T03:45:51.702Z,2.67
2022-10-28T03:48:20.159Z,2.78
2022-10-28T03:50:48.422Z,2.22
2022-10-28T03:53:16.702Z,2.28
2022-10-28T03:55:44.946Z,2.35
2022-10-28T03:58:14.531Z,2.42
2022-10-28T04:00:42.869Z,1.75
2022-10-28T04:03:11.145Z,1.83
2022-10-28T04:05:39.487Z,2.10
2022-10-28T04:08:07.759Z,2.08
2022-10-28T04:10:36.289Z,2.63
2022-10-28T04:13:06.040Z,2.45
2022-10-28T04:15:35.644Z,2.10
2022-10-28T04:18:04.449Z,2.00
2022-10-28T04:20:33.149Z,2.20
2022-10-28T04:23:01.680Z,2.10
2022-10-28T04:25:30.553Z,2.33
2022-10-28T04:27:58.742Z,2.40
2022-10-28T04:30:27.076Z,3.28
2022-10-28T04:32:56.736Z,3.50
2022-10-28T04:35:25.703Z,3.67
2022-10-28T04:37:54.372Z,3.83
2022-10-28T04:40:22.829Z,3.80
2022-10-28T04:42:51.342Z,3.45
2022-10-28T04:45:19.824Z,3.80
2022-10-28T04:47:48.229Z,3.15
2022-10-28T04:50:18.018Z,3.20
2022-10-28T04:52:46.329Z,3.40
2022-10-28T04:55:14.665Z,3.88
2022-10-28T04:57:42.907Z,3.67
2022-10-28T05:00:12.524Z,3.30
2022-10-28T05:02:45.267Z,3.72
2022-10-28T05:05:14.671Z,3.55
2022-10-28T05:07:44.366Z,4.43
2022-10-28T05:10:15.444Z,3.92
2022-10-28T05:12:44.349Z,3.97
2022-10-28T05:15:14.432Z,3.45
2022-10-28T05:17:44.268Z,3.42
2022-10-28T05:20:14.550Z,4.28
2022-10-28T05:22:49.052Z,2.75
2022-10-28T05:25:17.879Z,3.05
2022-10-28T05:27:46.241Z,3.42
2022-10-28T05:30:15.504Z,3.47
2022-10-28T05:32:43.729Z,3.35
2022-10-28T05:35:12.684Z,2.92
2022-10-28T05:37:44.192Z,2.65
2022-10-28T05:40:14.687Z,3.25
2022-10-28T05:42:43.589Z,2.88
2022-10-28T05:45:14.486Z,3.30
2022-10-28T05:47:45.215Z,2.90
2022-10-28T05:50:14.178Z,4.65
2022-10-28T05:52:46.921Z,4.13
2022-10-28T05:55:19.483Z,3.30
2022-10-28T05:57:47.945Z,3.30
2022-10-28T06:00:17.106Z,3.55
2022-10-28T06:02:45.485Z,3.55
2022-10-28T06:05:14.099Z,3.15
2022-10-28T06:07:42.982Z,4.03
2022-10-28T06:10:12.292Z,3.58
2022-10-28T06:12:40.599Z,3.35
2022-10-28T06:15:09.711Z,3.67
2022-10-28T06:17:37.955Z,4.57
2022-10-28T06:20:09.741Z,3.67
2022-10-28T06:22:37.986Z,4.05
2022-10-28T06:25:06.989Z,3.85
2022-10-28T06:27:35.262Z,3.67
2022-10-28T06:30:06.313Z,3.50
2022-10-28T06:32:34.579Z,3.60
2022-10-28T06:35:03.211Z,3.28
2022-10-28T06:37:31.557Z,2.50
2022-10-28T06:39:59.960Z,2.13
2022-10-28T06:42:28.289Z,2.58
2022-10-28T06:44:56.535Z,2.47
2022-10-28T06:47:27.752Z,2.40
2022-10-28T06:49:56.082Z,2.92
2022-10-28T06:52:24.432Z,2.10
2022-10-28T06:54:52.749Z,2.20
2022-10-28T06:57:22.750Z,2.75
2022-10-28T06:59:52.726Z,3.05
2022-10-28T07:02:21.020Z,2.33
2022-10-28T07:04:50.758Z,2.85
2022-10-28T07:07:19.549Z,2.15
2022-10-28T07:09:47.969Z,2.70
2022-10-28T07:14:49.546Z,2.50
2022-10-28T07:17:18.189Z,2.47
2022-10-28T07:19:46.385Z,2.40
2022-10-28T07:22:16.058Z,2.22
2022-10-28T07:24:44.285Z,2.20
2022-10-28T07:27:12.746Z,2.38
2022-10-28T07:29:41.212Z,1.92
2022-10-28T07:32:09.460Z,2.75
2022-10-28T07:34:37.789Z,3.10
2022-10-28T07:37:06.372Z,2.67
2022-10-28T07:42:05.249Z,2.45
2022-10-28T07:44:33.560Z,2.80
2022-10-28T07:47:01.917Z,1.90
2022-10-28T07:49:30.182Z,2.08
2022-10-28T07:51:58.528Z,2.22
2022-10-28T07:54:26.805Z,2.20
2022-10-28T07:56:56.523Z,2.05
2022-10-28T07:59:26.931Z,2.00
2022-10-28T08:01:55.957Z,3.67
2022-10-28T08:04:24.530Z,2.35
2022-10-28T08:09:26.379Z,2.17
2022-10-28T08:11:58.239Z,2.45
2022-10-28T08:14:26.700Z,2.33
2022-10-28T08:16:54.909Z,2.50
2022-10-28T08:19:23.141Z,1.95
2022-10-28T08:21:51.456Z,2.42
2022-10-28T08:24:19.685Z,2.20
2022-10-28T08:26:47.893Z,2.88
2022-10-28T08:29:17.801Z,2.53
2022-10-28T08:31:46.122Z,2.30
2022-10-28T08:34:14.450Z,2.45
2022-10-28T08:36:42.806Z,2.22
2022-10-28T08:39:11.202Z,2.05
2022-10-28T08:41:45.405Z,2.85
2022-10-28T08:44:42.371Z,3.75
2022-10-28T08:49:58.398Z,2.85
2022-10-28T08:52:34.032Z,2.75
2022-10-28T08:55:05.806Z,3.15
2022-10-28T08:57:41.863Z,2.95
2022-10-28T09:00:21.263Z,2.70
2022-10-28T09:02:58.908Z,1.95
2022-10-28T09:05:28.282Z,2.30
2022-10-28T09:07:57.969Z,2.80
2022-10-28T09:10:50.792Z,2.45
2022-10-28T09:16:16.331Z,2.13
2022-10-28T09:18:53.036Z,2.95
2022-10-28T09:21:30.877Z,1.90
2022-10-28T09:24:00.910Z,2.13
2022-10-28T09:26:44.206Z,2.20
2022-10-28T09:29:25.589Z,2.53
2022-10-28T09:32:09.487Z,2.22
2022-10-28T09:34:45.534Z,2.15
2022-10-28T09:37:18.530Z,2.20
2022-10-28T09:39:51.668Z,2.20
2022-10-28T09:42:28.725Z,2.17
2022-10-28T09:45:02.530Z,1.23
2022-10-28T09:47:35.725Z,1.98
2022-10-28T09:50:15.992Z,2.03
2022-10-28T09:52:52.224Z,2.67
2022-10-28T09:55:22.895Z,1.83
2022-10-28T09:57:51.533Z,1.83
2022-10-28T10:00:20.122Z,1.98
2022-10-28T10:02:57.583Z,1.38
2022-10-28T10:08:12.310Z,1.75
2022-10-28T10:10:48.397Z,2.35
2022-10-28T10:13:18.901Z,1.42
2022-10-28T10:15:52.197Z,1.65
2022-10-28T10:18:24.822Z,2.22
2022-10-28T10:20:55.844Z,2.40
2022-10-28T10:23:30.467Z,2.30
2022-10-28T10:26:01.121Z,1.98
2022-10-28T10:28:30.767Z,1.77
2022-10-28T10:31:01.674Z,2.10
2022-10-28T10:33:33.290Z,2.47
2022-10-28T10:36:05.286Z,2.60
2022-10-28T10:38:37.025Z,2.08
2022-10-28T10:41:05.995Z,2.78
2022-10-28T10:43:35.666Z,1.95
2022-10-28T10:46:06.405Z,1.88
2022-10-28T10:48:37.088Z,2.70
2022-10-28T10:51:13.220Z,2.17
2022-10-28T10:53:43.166Z,2.38
2022-10-28T10:56:13.239Z,1.77
2022-10-28T10:58:51.637Z,1.98
2022-10-28T11:01:22.733Z,1.80
2022-10-28T11:03:55.522Z,2.60
2022-10-28T11:06:28.298Z,2.08
2022-10-28T11:08:59.583Z,2.20
2022-10-28T11:11:35.393Z,2.83
2022-10-28T11:14:05.803Z,2.50
2022-10-28T11:16:34.222Z,2.17
2022-10-28T11:19:20.430Z,2.35
2022-10-28T11:22:02.871Z,2.80
2022-10-28T11:24:48.265Z,2.50
2022-10-28T11:27:28.816Z,2.05
2022-10-28T11:29:58.791Z,2.35
2022-10-28T11:32:48.788Z,2.50
2022-10-28T11:35:44.084Z,2.50
2022-10-28T11:38:24.011Z,2.38
2022-10-28T11:41:08.346Z,2.42
2022-10-28T11:43:48.624Z,2.78
2022-10-28T11:46:26.644Z,2.42
2022-10-28T11:49:26.965Z,2.28
2022-10-28T11:52:00.392Z,2.13
2022-10-28T11:54:50.993Z,2.38
2022-10-28T11:57:39.362Z,1.88
2022-10-28T12:00:28.142Z,2.40
2022-10-28T12:03:10.641Z,2.33
2022-10-28T12:05:44.878Z,2.00
2022-10-28T12:08:29.584Z,2.90
2022-10-28T12:11:12.245Z,1.75
2022-10-28T12:13:49.029Z,2.78
2022-10-28T12:16:23.693Z,3.05
2022-10-28T12:18:57.793Z,2.55
2022-10-28T12:21:32.440Z,2.72
2022-10-28T12:24:01.387Z,2.63
2022-10-28T12:26:39.118Z,3.05
2022-10-28T12:29:15.914Z,2.13
2022-10-28T12:31:48.975Z,2.33
2022-10-28T12:34:21.420Z,2.25
2022-10-28T12:36:53.500Z,2.50
2022-10-28T12:39:26.819Z,1.95
2022-10-28T12:42:01.968Z,1.98
2022-10-28T12:44:34.688Z,2.42
2022-10-28T12:47:15.623Z,2.80
2022-10-28T12:50:01.306Z,2.50
2022-10-28T12:52:39.455Z,2.60
2022-10-28T12:55:19.518Z,2.78
2022-10-28T12:57:52.923Z,3.00
2022-10-28T13:00:27.609Z,3.50
2022-10-28T13:03:02.630Z,3.63
2022-10-28T13:05:38.285Z,4.38
2022-10-28T13:08:41.038Z,3.22
2022-10-28T13:11:38.133Z,3.20
2022-10-28T13:14:20.467Z,2.53
2022-10-28T13:17:08.875Z,2.70
2022-10-28T13:19:50.556Z,2.97
2022-10-28T13:23:00.723Z,3.47
2022-10-28T13:25:47.123Z,3.20
2022-10-28T13:28:18.020Z,3.72
2022-10-28T13:30:57.730Z,3.13
2022-10-28T13:33:29.149Z,2.75
2022-10-28T13:36:10.276Z,2.25
2022-10-28T13:38:39.773Z,3.60
2022-10-28T13:41:27.631Z,3.05
2022-10-28T13:44:23.984Z,3.95
2022-10-28T13:47:24.893Z,2.58
2022-10-28T13:50:37.500Z,2.92
2022-10-28T13:53:43.201Z,2.70
2022-10-28T13:56:42.866Z,2.72
2022-10-28T13:59:25.659Z,3.30
2022-10-28T14:02:07.577Z,2.80
2022-10-28T14:04:56.135Z,3.13
2022-10-28T14:07:30.257Z,3.80
2022-10-28T14:10:20.054Z,3.03
2022-10-28T14:12:52.020Z,2.88
2022-10-28T14:15:30.637Z,2.45
2022-10-28T14:18:22.549Z,2.42
2022-10-28T14:21:00.797Z,2.55
2022-10-28T14:24:08.000Z,2.80
2022-10-28T14:27:09.939Z,2.70
2022-10-28T14:29:45.256Z,2.75
2022-10-28T14:32:42.955Z,3.55
2022-10-28T14:35:26.617Z,2.22
2022-10-28T14:38:27.361Z,3.03
2022-10-28T14:41:15.538Z,3.33
2022-10-28T14:43:55.375Z,2.90
2022-10-28T14:46:49.302Z,3.47
2022-10-28T14:49:21.541Z,11.55
2022-10-28T14:51:51.461Z,4.63
2022-10-28T14:54:30.786Z,4.03
2022-10-28T14:57:00.529Z,3.13
2022-10-28T14:59:32.605Z,2.97
2022-10-28T15:02:05.010Z,2.58
2022-10-28T15:04:33.474Z,3.15
2022-10-28T15:07:02.006Z,3.25
2022-10-28T15:09:31.865Z,3.70
2022-10-28T15:12:06.721Z,3.80
2022-10-28T15:14:37.590Z,3.15
2022-10-28T15:17:13.735Z,3.13
2022-10-28T15:19:42.378Z,3.75
2022-10-28T15:22:20.251Z,3.17
2022-10-28T15:24:58.517Z,3.25
2022-10-28T15:27:30.219Z,3.03
2022-10-28T15:29:58.673Z,3.55
2022-10-28T15:32:34.729Z,2.65
2022-10-28T15:35:38.142Z,2.45
2022-10-28T15:38:40.306Z,3.53
2022-10-28T15:41:49.578Z,2.75
2022-10-28T15:44:32.117Z,2.80
2022-10-28T15:47:02.017Z,2.50
2022-10-28T15:49:36.498Z,2.78
2022-10-28T15:52:33.800Z,3.13
2022-10-28T15:55:03.621Z,2.88
2022-10-28T15:57:47.097Z,2.90
2022-10-28T16:00:25.739Z,3.30
2022-10-28T16:02:56.912Z,3.17
2022-10-28T16:05:45.893Z,2.92
2022-10-28T16:08:21.731Z,4.10
2022-10-28T16:10:56.423Z,3.67
2022-10-28T16:13:36.077Z,3.47
2022-10-28T16:16:10.169Z,5.00
2022-10-28T16:18:45.608Z,4.75
2022-10-28T16:21:20.355Z,3.95
2022-10-28T16:23:50.460Z,3.10
2022-10-28T16:26:20.325Z,3.45
2022-10-28T16:28:48.638Z,2.67
2022-10-28T16:31:20.721Z,2.85
2022-10-28T16:33:49.303Z,2.92
2022-10-28T16:36:17.743Z,2.28
2022-10-28T16:38:46.362Z,3.13
2022-10-28T16:41:18.552Z,2.58
2022-10-28T16:43:47.960Z,2.70
2022-10-28T16:46:16.428Z,2.55
2022-10-28T16:48:46.101Z,3.40
2022-10-28T16:51:17.672Z,2.33
2022-10-28T16:53:49.707Z,2.78
2022-10-28T16:56:18.798Z,2.50
2022-10-28T16:58:47.216Z,2.65
2022-10-28T17:01:20.257Z,2.10
2022-10-28T17:03:50.011Z,2.83
2022-10-28T17:06:18.302Z,3.03
2022-10-28T17:09:02.502Z,3.65
2022-10-28T17:14:05.071Z,3.30
2022-10-28T17:16:36.909Z,3.95
2022-10-28T17:19:09.179Z,3.42
2022-10-28T17:21:37.521Z,3.55
2022-10-28T17:24:06.367Z,3.13
2022-10-28T17:26:34.683Z,3.20
2022-10-28T17:29:03.069Z,4.43
2022-10-28T17:31:31.395Z,3.80
2022-10-28T17:33:59.772Z,3.75
2022-10-28T17:36:29.515Z,3.78
2022-10-28T17:38:57.834Z,3.33
2022-10-28T17:41:26.567Z,4.70
2022-10-28T17:43:55.157Z,4.68
2022-10-28T17:46:23.677Z,5.18
2022-10-28T17:48:52.073Z,5.63
2022-10-28T17:51:22.511Z,6.70
2022-10-28T17:53:55.967Z,5.07
2022-10-28T17:56:24.452Z,5.85
2022-10-28T17:58:54.183Z,3.85
2022-10-28T18:01:22.810Z,4.70
2022-10-28T18:03:51.681Z,4.70
2022-10-28T18:06:20.028Z,5.65
2022-10-28T18:11:20.562Z,5.15
2022-10-28T18:13:52.859Z,4.65
2022-10-28T18:16:24.280Z,5.10
2022-10-28T18:18:53.904Z,4.82
2022-10-28T18:21:22.373Z,5.05
2022-10-28T18:23:53.744Z,5.72
2022-10-28T18:26:23.566Z,5.85
2022-10-28T18:28:51.902Z,5.97
2022-10-28T18:31:21.294Z,4.70
2022-10-28T18:33:50.301Z,4.95
2022-10-28T18:36:20.795Z,6.00
2022-10-28T18:38:49.999Z,5.40
2022-10-28T18:41:19.895Z,5.38
2022-10-28T18:43:49.600Z,6.00
2022-10-28T18:46:17.891Z,5.43
2022-10-28T18:48:47.003Z,5.55
2022-10-28T18:51:15.857Z,5.35
2022-10-28T18:53:45.787Z,6.50
2022-10-28T18:56:16.128Z,6.97
2022-10-28T18:58:44.756Z,6.35
2022-10-28T19:01:16.896Z,6.38
2022-10-28T19:03:45.735Z,7.28
2022-10-28T19:06:17.026Z,6.60
2022-10-28T19:08:45.837Z,6.70
2022-10-28T19:11:15.063Z,6.38
2022-10-28T19:13:44.043Z,8.10
2022-10-28T19:18:42.056Z,8.18
2022-10-28T19:21:13.487Z,9.13
2022-10-28T19:23:42.114Z,12.98
2022-10-28T19:26:12.263Z,12.13
2022-10-28T19:28:41.107Z,8.52
2022-10-28T19:31:11.277Z,6.43
2022-10-28T19:33:41.629Z,8.98
2022-10-28T19:36:14.441Z,6.35
2022-10-28T19:38:42.857Z,7.55
2022-10-28T19:41:12.902Z,7.03
2022-10-28T19:43:41.794Z,7.40
2022-10-28T19:46:11.952Z,7.22
2022-10-28T19:48:42.658Z,7.50
2022-10-28T19:51:14.631Z,7.55
2022-10-28T19:53:43.099Z,6.93
2022-10-28T19:56:11.464Z,7.28
2022-10-28T19:58:39.835Z,6.88
2022-10-28T20:01:09.266Z,7.13
2022-10-28T20:03:39.234Z,5.78
2022-10-28T20:06:11.411Z,6.15
2022-10-28T20:08:43.464Z,6.35
2022-10-28T20:11:14.212Z,6.13
2022-10-28T20:13:42.739Z,6.97
2022-10-28T20:16:12.936Z,6.13
2022-10-28T20:18:41.813Z,5.70
2022-10-28T20:21:14.280Z,5.95
2022-10-28T20:23:43.371Z,6.93
2022-10-28T20:26:12.976Z,8.07
2022-10-28T20:28:41.324Z,9.30
2022-10-28T20:31:12.119Z,8.35
2022-10-28T20:33:41.843Z,8.48
2022-10-28T20:36:24.320Z,8.93
2022-10-28T20:38:55.706Z,10.48
2022-10-28T20:41:25.196Z,9.38
2022-10-28T20:43:54.412Z,10.73
2022-10-28T20:46:22.934Z,10.57
2022-10-28T20:48:51.908Z,10.13
2022-10-28T20:51:22.274Z,8.85
2022-10-28T20:53:50.741Z,10.25
2022-10-28T20:56:20.787Z,10.90
2022-10-28T20:58:49.313Z,12.07
2022-10-28T21:01:19.096Z,11.65
2022-10-28T21:03:48.746Z,10.98
2022-10-28T21:06:18.284Z,12.45
2022-10-28T21:08:47.930Z,12.98
2022-10-28T21:11:17.902Z,12.95
2022-10-28T21:13:51.798Z,12.70
2022-10-28T21:16:20.759Z,12.90
2022-10-28T21:18:49.498Z,13.32
2022-10-28T21:21:18.753Z,13.52
2022-10-28T21:23:50.909Z,12.02
2022-10-28T21:26:21.549Z,13.18
2022-10-28T21:28:52.143Z,12.93
2022-10-28T21:31:21.996Z,12.43
2022-10-28T21:36:24.041Z,12.25
2022-10-28T21:38:56.364Z,13.10
2022-10-28T21:41:26.498Z,12.10
2022-10-28T21:43:56.045Z,12.45
2022-10-28T21:46:25.017Z,11.98
2022-10-28T21:48:54.579Z,12.73
2022-10-28T21:51:22.931Z,11.85
2022-10-28T21:53:51.259Z,12.13
2022-10-28T21:56:21.726Z,12.27
2022-10-28T21:58:51.582Z,13.35
2022-10-28T22:01:22.285Z,14.20
2022-10-28T22:03:51.539Z,13.38
2022-10-28T22:06:19.828Z,12.80
2022-10-28T22:08:48.299Z,14.40
2022-10-28T22:11:18.921Z,13.65
2022-10-28T22:13:49.754Z,13.23
2022-10-28T22:16:19.467Z,12.20
2022-10-28T22:18:47.747Z,12.73
2022-10-28T22:21:18.199Z,12.63
2022-10-28T22:23:46.790Z,13.10
2022-10-28T22:26:17.624Z,13.15
2022-10-28T22:28:46.211Z,12.80
2022-10-28T22:31:17.413Z,11.63
2022-10-28T22:36:16.616Z,13.18
2022-10-28T22:38:45.374Z,13.02
2022-10-28T22:41:15.642Z,14.85
2022-10-28T22:43:46.282Z,14.07
2022-10-28T22:46:17.107Z,12.38
2022-10-28T22:48:45.777Z,12.48
2022-10-28T22:51:14.036Z,14.38
2022-10-28T22:53:42.832Z,14.05
2022-10-28T22:56:15.221Z,13.18
2022-10-28T22:58:43.538Z,13.88
2022-10-28T23:01:13.548Z,12.45
2022-10-28T23:03:44.777Z,12.38
2022-10-28T23:06:14.687Z,13.43
2022-10-28T23:08:44.920Z,14.55
2022-10-28T23:11:14.890Z,14.25
2022-10-28T23:13:43.568Z,17.05
2022-10-28T23:16:13.822Z,18.27
2022-10-28T23:18:44.030Z,16.60
2022-10-28T23:21:13.864Z,16.42
2022-10-28T23:23:42.416Z,16.42
2022-10-28T23:26:11.646Z,15.10
2022-10-28T23:28:39.956Z,15.70
2022-10-28T23:31:08.681Z,15.18
2022-10-28T23:33:36.986Z,16.45
2022-10-28T23:36:07.208Z,16.55
2022-10-28T23:38:35.437Z,17.80
2022-10-28T23:41:05.498Z,18.23
2022-10-28T23:43:34.255Z,16.25
2022-10-28T23:46:03.211Z,14.50
2022-10-28T23:48:31.438Z,16.70
2022-10-28T23:51:00.004Z,15.65
2022-10-28T23:53:30.585Z,15.80
2022-10-28T23:55:59.598Z,15.50
2022-10-28T23:58:27.990Z,16.80
